createdAt,value
2023-01-02T00:08:35.935Z,94996.09
2023-01-02T00:23:37.457Z,94985.03
2023-01-02T00:38:39.584Z,94987.25
2023-01-02T00:53:41.093Z,94996.78
2023-01-02T01:08:42.591Z,94987.22
2023-01-02T01:23:44.776Z,94982.94
2023-01-02T01:38:47.110Z,94979.16
2023-01-02T01:53:50.963Z,94970.31
2023-01-02T02:08:55.793Z,94961.56
2023-01-02T02:24:25.617Z,94965.44
2023-01-02T02:39:45.827Z,94957.25
2023-01-02T02:54:53.984Z,94955.72
2023-01-02T03:10:07.272Z,94926.63
2023-01-02T03:25:11.047Z,94923.53
2023-01-02T03:40:22.389Z,94951.38
2023-01-02T03:55:24.777Z,94964.00
2023-01-02T04:10:27.498Z,94960.84
2023-01-02T04:25:31.842Z,94970.47
2023-01-02T04:40:37.712Z,94987.41
2023-01-02T04:55:39.325Z,94984.63
2023-01-02T05:10:40.838Z,94984.75
2023-01-02T05:25:42.387Z,94975.56
2023-01-02T05:40:43.903Z,94971.88
2023-01-02T05:55:45.438Z,94972.78
2023-01-02T06:42:38.511Z,95014.03
2023-01-02T06:57:40.003Z,95011.09
2023-01-02T07:12:41.563Z,94999.88
2023-01-02T07:27:43.088Z,95011.78
2023-01-02T07:42:44.579Z,95021.16
2023-01-02T07:57:46.623Z,95026.19
2023-01-02T08:12:48.109Z,95021.38
2023-01-02T08:27:49.597Z,95013.09
2023-01-02T08:42:51.137Z,95008.97
2023-01-02T08:57:52.688Z,95011.03
2023-01-02T09:28:14.480Z,94970.28
2023-01-02T09:43:18.389Z,94947.66
2023-01-02T09:58:41.277Z,94929.41
2023-01-02T10:14:20.835Z,94906.97
2023-01-02T10:29:16.322Z,94886.97
2023-01-02T10:44:26.910Z,94886.84
2023-01-02T10:59:29.329Z,94868.91
2023-01-02T11:14:34.814Z,94841.91
2023-01-02T11:29:37.238Z,94824.31
2023-01-02T11:44:38.859Z,94802.25
2023-01-02T11:59:45.187Z,94791.25
2023-01-02T12:15:19.226Z,94786.75
2023-01-02T12:30:21.698Z,94772.66
2023-01-02T12:45:23.196Z,94754.63
2023-01-02T13:00:24.648Z,94746.69
2023-01-02T13:15:30.965Z,94750.56
2023-01-02T14:03:04.472Z,94727.06
2023-01-02T14:18:09.432Z,94730.94
2023-01-02T14:33:17.211Z,94738.19
2023-01-02T14:48:30.451Z,94727.28
2023-01-02T15:03:38.786Z,94734.94
2023-01-02T15:18:40.298Z,94729.72
2023-01-02T15:33:42.084Z,94730.47
2023-01-02T15:48:44.309Z,94749.25
2023-01-02T16:04:02.182Z,94740.81
2023-01-02T16:19:05.814Z,94744.84
2023-01-02T16:34:14.181Z,94752.97
2023-01-02T16:49:19.381Z,94745.28
2023-01-02T17:04:20.861Z,94748.78
2023-01-02T17:19:22.938Z,94752.25
2023-01-02T17:34:24.465Z,94760.31
2023-01-02T17:49:26.579Z,94759.81
2023-01-02T18:04:28.256Z,94771.25
2023-01-02T18:19:33.359Z,94770.00
2023-01-02T18:34:54.727Z,94773.53
2023-01-02T18:49:58.766Z,94779.56
2023-01-02T19:05:00.499Z,94775.31
2023-01-02T19:20:01.988Z,94772.06
2023-01-02T19:35:22.247Z,94766.47
2023-01-02T19:50:25.667Z,94760.78
2023-01-02T20:05:28.856Z,94766.09
2023-01-02T20:20:30.443Z,94765.00
2023-01-02T20:35:31.973Z,94749.66
2023-01-02T20:50:33.612Z,94761.56
2023-01-02T21:05:36.440Z,94770.25
2023-01-02T21:20:44.328Z,94752.16
2023-01-02T21:35:49.764Z,94755.34
2023-01-02T21:50:51.305Z,94754.13
2023-01-02T22:05:53.864Z,94748.09
2023-01-02T22:20:55.371Z,94730.50
2023-01-02T22:35:56.870Z,94711.31
2023-01-02T22:50:59.797Z,94713.88
2023-01-02T23:06:01.339Z,94700.97
2023-01-02T23:21:07.663Z,94689.88
2023-01-02T23:36:09.239Z,94688.28
2023-01-02T23:51:10.740Z,94692.09
